NCAR-RAP Real-Time Weather Data

Output produced by METARs form (17 September 2019  16:36 UTC)
found at http://weather.rap.ucar.edu/surface/
 
KLYH 171554Z 03011G18KT 10SM BKN021 25/19 A3009 RMK AO2 SLP181 T02500189
KLYH 171454Z 03013G19KT 10SM BKN019 24/19 A3008 RMK AO2 SLP177 T02390189 51014
KLYH 171354Z 03012G21KT 10SM FEW018 BKN080 23/18 A3007 RMK AO2 SLP175 T02330183
KLYH 171254Z 02013G18KT 10SM SCT070 22/18 A3006 RMK AO2 SLP170 T02220178
KLYH 171154Z 03008KT 10SM CLR 21/18 A3004 RMK AO2 SLP164 T02110178 10217 20183 53017
KLYH 171054Z 02006KT 10SM CLR 20/18 A3002 RMK AO2 SLP153 T02000178
KLYH 170954Z AUTO 03003KT 10SM SCT100 20/18 A3000 RMK AO2 SLP147 T02000178
KLYH 170854Z AUTO 02004KT 10SM SCT100 21/18 A2999 RMK AO2 SLP143 T02060183 56004
KLYH 170754Z AUTO 00000KT 10SM OVC100 21/18 A2999 RMK AO2 SLP143 T02060183
KLYH 170654Z AUTO 36003KT 10SM SCT080 OVC095 20/18 A3000 RMK AO2 SLP147 T02000178
KLYH 170554Z AUTO 00000KT 10SM CLR 21/17 A3000 RMK AO2 SLP148 T02060167 10244 20200 55003
KLYH 170454Z AUTO 00000KT 10SM CLR 20/17 A3000 RMK AO2 SLP149 T02000167 403440161
KLYH 170354Z AUTO 00000KT 10SM CLR 21/17 A3001 RMK AO2 SLP151 T02110172
KLYH 170254Z AUTO 00000KT 10SM SCT080 22/18 A3001 RMK AO2 SLP152 T02220178 51008
KLYH 170054Z 00000KT 10SM FEW095 22/17 A3000 RMK AO2 SLP148 T02220172
KLYH 162354Z 00000KT 10SM CLR 24/17 A2999 RMK AO2 SLP146 T02440167 10344 20244 53001
KLYH 162254Z 00000KT 10SM CLR 30/16 A2998 RMK AO2 SLP143 T03000156
KLYH 162154Z 00000KT 10SM CLR 33/12 A2998 RMK AO2 SLP140 T03330117
KLYH 162054Z 05004KT 10SM CLR 33/12 A2999 RMK AO2 SLP143 T03330117 56022
KLYH 161954Z 00000KT 10SM CLR 33/12 A3000 RMK AO2 SLP148 T03330117
KLYH 161854Z VRB03KT 10SM CLR 33/12 A3003 RMK AO2 SLP157 T03330117